Time;durP1;ratioP1;P1;durP2;ratioP2;P2;SDS_P1;SDS_P2;PMS_P1;PMS_P2;Temp;Humidity;BMP_temperature;BMP_pressure;BME280_temperature;BME280_humidity;BME280_pressure;Samples;Min_cycle;Max_cycle;Signal;HPM_P1;HPM_P2
2022/01/27 00:01:46;;;;;;;9.10;6.43;;;2.60;91.20;;;2.32;62.44;95639.94;4991156;28;20549;-57
2022/01/27 00:04:18;;;;;;;12.00;6.83;;;2.60;91.10;;;2.32;63.42;95643.38;5036670;28;20993;-57
2022/01/27 00:06:45;;;;;;;10.47;6.43;;;2.60;91.10;;;2.33;62.51;95639.03;5038139;28;20976;-57
2022/01/27 00:09:19;;;;;;;10.03;7.20;;;2.60;91.20;;;2.33;62.50;95639.03;5040339;28;21000;-56
2022/01/27 00:11:47;;;;;;;9.80;6.40;;;2.60;91.20;;;2.33;62.34;95639.03;5039203;28;20763;-57
2022/01/27 00:14:17;;;;;;;10.27;6.83;;;2.60;91.10;;;2.33;62.76;95636.44;5043562;28;20459;-55
2022/01/27 00:16:54;;;;;;;7.47;6.10;;;2.60;91.10;;;2.32;63.33;95640.78;5035940;28;20472;-55
2022/01/27 00:19:22;;;;;;;10.27;6.67;;;2.60;91.20;;;2.33;62.92;95637.25;5037762;28;20459;-56
2022/01/27 00:21:50;;;;;;;7.33;5.67;;;2.60;91.20;;;2.32;63.38;95637.31;5039729;28;21021;-57
2022/01/27 00:24:17;;;;;;;11.00;6.20;;;2.60;91.10;;;2.32;62.60;95629.53;5040229;28;20597;-56
2022/01/27 00:26:44;;;;;;;12.97;7.30;;;2.60;91.00;;;2.33;63.12;95628.63;5034052;28;21031;-55
2022/01/27 00:29:12;;;;;;;9.53;6.80;;;2.60;91.00;;;2.34;62.53;95635.53;5037427;28;20460;-57
2022/01/27 00:31:39;;;;;;;10.50;6.30;;;2.60;91.00;;;2.33;62.56;95634.66;5040212;28;20480;-56
2022/01/27 00:34:06;;;;;;;6.60;5.90;;;2.60;90.90;;;2.34;62.55;95635.53;5035874;28;20461;-56
2022/01/27 00:36:35;;;;;;;9.97;7.87;;;2.60;91.10;;;2.35;63.19;95634.59;5038808;28;20480;-56
2022/01/27 00:39:02;;;;;;;11.63;6.70;;;2.60;91.00;;;2.36;63.41;95631.09;5041673;28;20463;-56
2022/01/27 00:41:30;;;;;;;9.47;6.30;;;2.60;91.30;;;2.35;62.04;95634.59;5045188;28;20472;-57
2022/01/27 00:43:57;;;;;;;12.97;7.67;;;2.70;90.90;;;2.35;63.24;95638.94;5039892;28;20484;-55
2022/01/27 00:46:24;;;;;;;11.33;7.17;;;2.70;91.00;;;2.36;62.29;95633.69;5038987;28;20468;-57
2022/01/27 00:48:51;;;;;;;11.63;6.60;;;2.60;91.00;;;2.36;62.26;95636.28;5038271;28;20804;-57
2022/01/27 00:51:23;;;;;;;10.60;6.53;;;2.70;90.90;;;2.37;62.45;95642.31;5034353;28;20503;-57
2022/01/27 00:53:59;;;;;;;8.20;4.93;;;2.70;91.00;;;2.37;63.21;95642.31;5039916;28;20472;-58
2022/01/27 00:56:34;;;;;;;6.77;5.07;;;2.70;90.80;;;2.33;61.85;95636.44;5039605;28;21019;-57
2022/01/27 00:59:18;;;;;;;5.43;4.83;;;2.60;90.50;;;2.32;62.19;95639.94;5035824;28;20514;-57
2022/01/27 01:01:51;;;;;;;6.53;4.40;;;2.60;90.70;;;2.32;61.97;95639.94;5032753;28;20496;-59
2022/01/27 01:04:25;;;;;;;5.03;3.97;;;2.60;90.70;;;2.31;62.81;95633.91;5037228;28;20472;-57
2022/01/27 01:06:53;;;;;;;4.50;4.10;;;2.60;90.90;;;2.30;62.55;95629.63;5035008;28;20472;-56
2022/01/27 01:14:58;;;;;;;5.67;4.60;;;2.60;90.40;;;2.26;61.86;95628.09;5018741;28;20498;-57
2022/01/27 01:20:27;;;;;;;7.90;3.93;;;2.60;90.80;;;2.27;63.32;95618.53;5028138;28;20451;-58
2022/01/27 01:31:32;;;;;;;3.40;3.10;;;2.60;90.90;;;2.33;62.26;95620.84;5024027;28;21051;-56
2022/01/27 01:34:13;;;;;;;3.13;2.83;;;2.60;90.90;;;2.35;62.62;95620.78;5040330;28;20542;-57
2022/01/27 01:36:49;;;;;;;2.30;2.10;;;2.60;90.70;;;2.35;62.75;95621.63;5035924;28;20499;-56
2022/01/27 01:39:16;;;;;;;2.70;2.50;;;2.60;90.60;;;2.33;62.47;95608.69;5034457;28;20976;-56
2022/01/27 01:41:45;;;;;;;2.27;2.07;;;2.70;90.60;;;2.34;61.72;95614.75;5037387;28;20500;-57
2022/01/27 01:44:12;;;;;;;2.70;2.50;;;2.60;90.60;;;2.36;62.12;95612.09;5035003;28;20538;-56
2022/01/27 01:46:39;;;;;;;3.03;2.83;;;2.70;90.70;;;2.37;62.87;95613.75;5039297;28;20476;-57
2022/01/27 01:49:07;;;;;;;2.50;2.30;;;2.60;90.70;;;2.36;62.20;95614.69;5040666;28;20825;-55
2022/01/27 01:51:35;;;;;;;2.90;2.70;;;2.70;90.80;;;2.37;62.26;95606.81;5046065;28;20674;-57
2022/01/27 01:54:02;;;;;;;2.70;2.50;;;2.70;90.90;;;2.36;62.45;95605.13;5037836;28;20484;-56
2022/01/27 01:56:30;;;;;;;4.00;2.00;;;2.70;90.80;;;2.38;62.56;95603.28;5039981;28;20546;-56
2022/01/27 01:58:59;;;;;;;2.57;2.40;;;2.70;90.90;;;2.39;62.82;95597.19;5039182;28;20440;-56
2022/01/27 02:01:26;;;;;;;3.37;2.20;;;2.70;90.80;;;2.40;63.19;95598.03;5041906;28;20837;-57
2022/01/27 02:03:53;;;;;;;2.47;2.30;;;2.70;90.80;;;2.40;62.64;95591.09;5042893;28;20495;-55
2022/01/27 02:06:26;;;;;;;3.00;2.43;;;2.70;90.80;;;2.40;62.19;95583.31;5042455;28;20588;-56
2022/01/27 02:09:11;;;;;;;3.03;2.60;;;2.70;90.80;;;2.42;62.95;95591.88;5039298;28;20459;-57
2022/01/27 02:19:57;;;;;;;2.23;2.03;;;2.70;90.90;;;2.44;63.11;95584.84;5044030;28;20823;-55
2022/01/27 02:22:24;;;;;;;2.53;2.40;;;2.70;90.90;;;2.43;63.03;95588.38;5038404;28;20526;-57
2022/01/27 02:24:52;;;;;;;2.60;2.40;;;2.70;90.60;;;2.43;63.06;95587.50;5039172;28;20484;-56
2022/01/27 02:27:19;;;;;;;3.20;2.00;;;2.70;90.80;;;2.43;62.01;95583.19;5038763;28;20484;-57
2022/01/27 02:29:46;;;;;;;1.83;1.73;;;2.70;90.90;;;2.42;61.79;95591.88;5040298;28;20933;-56
2022/01/27 02:32:15;;;;;;;2.40;2.30;;;2.70;90.60;;;2.41;62.15;95590.16;5039815;28;20477;-56
2022/01/27 02:34:42;;;;;;;2.33;2.20;;;2.70;90.70;;;2.41;62.44;95590.16;5035867;28;20456;-57
2022/01/27 02:37:11;;;;;;;4.47;2.67;;;2.70;90.70;;;2.41;62.13;95584.16;5041742;28;20468;-56
2022/01/27 02:39:38;;;;;;;4.60;2.80;;;2.70;90.90;;;2.36;62.36;95579.19;5039976;28;20879;-57
2022/01/27 02:42:12;;;;;;;3.87;3.00;;;2.70;90.60;;;2.33;62.49;95580.16;5040982;28;21004;-57
2022/01/27 02:44:57;;;;;;;3.00;2.80;;;2.60;90.50;;;2.32;62.12;95575.91;5041238;28;21110;-57
2022/01/27 02:47:25;;;;;;;3.00;2.80;;;2.60;90.80;;;2.31;62.68;95573.38;5038744;28;20495;-57
2022/01/27 02:49:52;;;;;;;2.97;2.73;;;2.60;91.00;;;2.28;62.26;95568.31;5041710;28;20542;-55
2022/01/27 02:52:21;;;;;;;2.73;2.20;;;2.50;90.60;;;2.28;63.07;95586.50;5039570;28;20562;-57
2022/01/27 02:54:48;;;;;;;2.57;2.37;;;2.60;90.80;;;2.26;63.85;95583.97;5038657;28;20444;-57
2022/01/27 02:57:16;;;;;;;2.70;2.50;;;2.60;91.20;;;2.26;62.99;95583.97;5036703;28;20471;-56
2022/01/27 02:59:43;;;;;;;2.70;2.50;;;2.50;91.00;;;2.24;62.13;95577.97;5040407;28;20453;-57
2022/01/27 03:02:10;;;;;;;2.37;2.20;;;2.50;91.00;;;2.22;62.48;95581.59;5041327;28;21022;-56
2022/01/27 03:04:38;;;;;;;3.00;2.80;;;2.50;91.10;;;2.22;63.16;95584.19;5038901;28;20514;-57
2022/01/27 03:07:06;;;;;;;2.70;2.50;;;2.50;91.10;;;2.23;62.58;95594.50;5033341;28;20537;-55
2022/01/27 03:09:35;;;;;;;3.50;2.40;;;2.50;91.30;;;2.23;63.42;95593.63;5039592;28;20503;-57
2022/01/27 03:12:06;;;;;;;3.17;3.07;;;2.50;91.40;;;2.23;63.76;95591.91;5036816;28;20464;-57
2022/01/27 03:14:33;;;;;;;2.97;2.70;;;2.50;91.40;;;2.23;63.93;95578.91;5038670;28;20449;-56
2022/01/27 03:17:01;;;;;;;3.23;3.03;;;2.50;91.70;;;2.26;64.02;95580.50;5038587;28;20479;-56
2022/01/27 03:19:29;;;;;;;3.57;3.27;;;2.60;91.70;;;2.28;63.64;95589.09;5040317;28;20460;-56
2022/01/27 03:21:56;;;;;;;2.50;2.40;;;2.60;91.50;;;2.29;63.50;95576.03;5039156;28;20548;-56
2022/01/27 03:24:24;;;;;;;3.33;3.13;;;2.60;91.60;;;2.28;63.40;95582.13;5041313;28;20499;-56
2022/01/27 03:26:53;;;;;;;3.43;3.13;;;2.60;91.40;;;2.26;62.98;95578.78;5041269;28;20469;-56
2022/01/27 03:29:21;;;;;;;3.50;3.20;;;2.60;91.50;;;2.27;64.10;95577.84;5037136;28;20495;-56
2022/01/27 03:31:48;;;;;;;3.33;3.03;;;2.60;91.70;;;2.28;63.80;95578.72;5038127;28;20476;-56
2022/01/27 03:34:16;;;;;;;4.17;3.77;;;2.60;91.50;;;2.27;63.81;95582.19;5035186;28;20472;-57
2022/01/27 03:36:43;;;;;;;4.80;4.30;;;2.60;91.50;;;2.27;63.67;95587.41;5039441;28;20471;-56
2022/01/27 03:39:10;;;;;;;3.90;3.60;;;2.50;91.40;;;2.26;62.98;95585.69;5038527;28;20453;-58
2022/01/27 03:41:39;;;;;;;4.23;3.90;;;2.50;91.60;;;2.25;63.11;95586.63;5039886;28;20491;-56
2022/01/27 03:44:08;;;;;;;4.50;4.10;;;2.50;91.70;;;2.21;63.60;95583.31;5037725;28;20441;-55
2022/01/27 03:46:35;;;;;;;3.80;3.50;;;2.50;91.50;;;2.18;62.65;95591.25;5039795;28;20908;-55
2022/01/27 03:49:02;;;;;;;4.63;4.33;;;2.50;91.40;;;2.17;63.14;95586.13;5040873;28;20830;-57
2022/01/27 03:51:30;;;;;;;4.73;4.27;;;2.40;91.60;;;2.18;63.64;95593.84;5040258;28;20537;-56
2022/01/27 03:53:57;;;;;;;4.13;3.83;;;2.40;91.60;;;2.17;63.71;95583.53;5037944;28;20452;-57
2022/01/27 03:56:24;;;;;;;4.00;3.70;;;2.50;91.60;;;2.18;63.78;95593.00;5035644;28;20477;-55
2022/01/27 03:58:51;;;;;;;4.20;3.90;;;2.40;91.60;;;2.17;63.37;95594.78;5034320;28;20460;-58
2022/01/27 04:01:20;;;;;;;5.20;3.20;;;2.40;91.50;;;2.19;63.67;95592.94;5038815;28;20476;-58
2022/01/27 04:03:47;;;;;;;4.43;4.13;;;2.40;91.60;;;2.22;64.10;95599.75;5040504;28;20950;-56
2022/01/27 04:06:20;;;;;;;2.87;2.67;;;2.50;91.60;;;2.23;63.96;95609.19;5039769;28;20499;-56
2022/01/27 04:08:48;;;;;;;3.90;3.50;;;2.50;91.60;;;2.24;62.48;95597.91;5039540;28;20960;-56
2022/01/27 04:11:15;;;;;;;3.73;3.43;;;2.50;91.60;;;2.24;62.89;95598.75;5041864;28;20980;-56
2022/01/27 04:13:43;;;;;;;3.13;2.93;;;2.60;91.70;;;2.26;63.25;95599.53;5037485;28;20472;-57
2022/01/27 04:16:10;;;;;;;3.30;3.10;;;2.50;91.40;;;2.22;62.44;95599.75;5047119;28;20503;-55
2022/01/27 04:18:39;;;;;;;3.50;3.20;;;2.50;91.20;;;2.20;63.89;95601.56;5031223;28;20457;-57
2022/01/27 04:21:06;;;;;;;3.40;2.83;;;2.50;91.50;;;2.20;63.58;95598.97;5039510;28;20981;-56
2022/01/27 04:23:33;;;;;;;4.83;3.30;;;2.50;91.60;;;2.21;63.51;95601.50;5035795;28;20914;-56
2022/01/27 04:26:01;;;;;;;5.17;4.63;;;2.50;91.60;;;2.22;63.90;95603.19;5042390;28;20612;-58
2022/01/27 04:28:31;;;;;;;5.40;4.60;;;2.50;91.60;;;2.23;63.76;95604.88;5038413;28;20459;-56
2022/01/27 04:31:02;;;;;;;9.27;5.13;;;2.50;91.60;;;2.23;63.30;95611.78;5039605;28;20472;-56
2022/01/27 04:33:32;;;;;;;3.53;3.23;;;2.50;91.60;;;2.22;63.58;95604.94;5036417;28;20459;-56
2022/01/27 04:36:05;;;;;;;3.70;3.40;;;2.50;91.60;;;2.22;62.87;95605.78;5039500;28;20469;-57
2022/01/27 04:38:38;;;;;;;3.77;3.47;;;2.50;91.40;;;2.22;63.51;95612.72;5038827;28;20449;-58
2022/01/27 04:41:12;;;;;;;3.90;3.60;;;2.50;91.50;;;2.22;63.69;95616.16;5041096;28;20551;-57
2022/01/27 04:43:45;;;;;;;4.10;3.27;;;2.50;91.60;;;2.23;63.06;95609.19;5034136;28;20662;-57
2022/01/27 04:46:25;;;;;;;3.40;3.20;;;2.50;91.60;;;2.23;63.53;95612.66;5040176;28;20973;-57
2022/01/27 04:48:56;;;;;;;4.77;3.50;;;2.50;91.70;;;2.25;63.64;95613.41;5041794;28;20563;-56
2022/01/27 04:51:24;;;;;;;3.60;3.30;;;2.50;91.60;;;2.26;62.82;95611.66;5036555;28;20490;-57
2022/01/27 04:53:57;;;;;;;4.43;3.73;;;2.50;91.60;;;2.27;64.14;95618.53;5038062;28;20491;-56
2022/01/27 04:56:26;;;;;;;4.53;3.23;;;2.60;91.60;;;2.27;63.84;95618.53;5038415;28;20456;-58
2022/01/27 04:58:58;;;;;;;7.40;4.47;;;2.60;91.50;;;2.27;63.50;95623.72;5038728;28;20467;-57
2022/01/27 05:01:31;;;;;;;3.47;3.20;;;2.60;91.40;;;2.25;62.99;95621.22;5033718;28;20481;-58
2022/01/27 05:04:03;;;;;;;4.03;3.30;;;2.50;91.30;;;2.25;63.54;95620.38;5041376;28;20444;-56
2022/01/27 05:06:31;;;;;;;4.30;4.00;;;2.50;91.40;;;2.24;62.65;95626.47;5036108;28;20860;-56
2022/01/27 05:08:59;;;;;;;4.13;3.77;;;2.50;91.50;;;2.21;63.64;95624.84;5038520;28;20453;-57
2022/01/27 05:11:32;;;;;;;4.37;4.03;;;2.50;91.40;;;2.22;62.67;95633.50;5037174;28;21004;-57
2022/01/27 05:14:05;;;;;;;4.57;4.17;;;2.50;91.60;;;2.22;64.86;95625.72;5035356;28;20449;-56
2022/01/27 05:16:32;;;;;;;6.00;4.33;;;2.50;92.20;;;2.27;64.05;95644.50;5035970;28;20511;-56
2022/01/27 05:19:00;;;;;;;4.60;4.20;;;2.50;92.30;;;2.32;64.86;95642.53;5038203;28;20939;-56
2022/01/27 05:21:27;;;;;;;6.13;4.00;;;2.60;92.80;;;2.39;65.09;95643.09;5038736;28;20476;-53
2022/01/27 05:23:56;;;;;;;6.00;4.80;;;2.60;93.30;;;2.46;65.42;95640.16;5033793;28;20449;-57
2022/01/27 05:26:23;;;;;;;4.17;3.87;;;2.70;93.10;;;2.51;64.23;95640.75;5035079;28;20500;-58
2022/01/27 05:28:50;;;;;;;4.10;3.80;;;2.80;92.70;;;2.55;64.04;95638.03;5033887;28;20573;-57
2022/01/27 05:31:17;;;;;;;4.10;3.80;;;2.80;92.50;;;2.55;63.63;95632.84;5035716;28;20475;-57
2022/01/27 05:33:45;;;;;;;5.80;4.53;;;2.80;91.80;;;2.55;63.14;95648.41;5035924;28;20460;-56
2022/01/27 05:36:12;;;;;;;4.33;4.00;;;2.80;91.80;;;2.51;63.30;95648.56;5036678;28;20476;-57
2022/01/27 05:38:39;;;;;;;4.33;3.80;;;2.80;91.80;;;2.50;63.85;95652.06;5034399;28;20456;-56
2022/01/27 05:41:08;;;;;;;5.00;4.50;;;2.80;91.80;;;2.51;64.78;95656.34;5036164;28;20476;-56
2022/01/27 05:43:35;;;;;;;8.37;6.00;;;2.80;92.40;;;2.53;64.11;95658.03;5036644;28;20456;-58
2022/01/27 05:46:03;;;;;;;7.90;5.97;;;2.80;91.80;;;2.50;63.80;95649.47;5034616;28;21157;-57
2022/01/27 05:48:31;;;;;;;6.37;5.77;;;2.80;92.10;;;2.51;63.76;95656.34;5036862;28;20464;-56
2022/01/27 05:50:58;;;;;;;6.50;5.70;;;2.80;91.80;;;2.50;64.00;95659.00;5033109;28;20541;-57
2022/01/27 05:53:25;;;;;;;6.40;5.67;;;2.80;91.80;;;2.49;63.44;95655.59;5035389;28;20455;-57
2022/01/27 05:55:53;;;;;;;5.33;4.80;;;2.80;91.80;;;2.47;64.17;95659.16;5036243;28;20487;-57
2022/01/27 05:58:21;;;;;;;7.10;4.60;;;2.80;91.80;;;2.46;63.10;95660.91;5037035;28;20448;-57
2022/01/27 06:00:49;;;;;;;6.43;5.10;;;2.70;91.70;;;2.45;63.27;95667.00;5035969;28;20474;-56
2022/01/27 06:03:16;;;;;;;6.13;5.53;;;2.80;91.80;;;2.42;63.57;95656.78;5034882;28;20448;-57
2022/01/27 06:05:43;;;;;;;7.20;5.00;;;2.70;91.70;;;2.40;64.32;95661.19;5037446;28;20488;-57
2022/01/27 06:08:11;;;;;;;6.43;5.73;;;2.70;91.80;;;2.37;63.56;95665.66;5034597;28;20867;-58
2022/01/27 06:10:38;;;;;;;4.57;4.17;;;2.70;91.80;;;2.33;64.64;95667.56;5036528;28;21000;-57
2022/01/27 06:13:05;;;;;;;6.43;5.20;;;2.60;92.10;;;2.37;63.32;95671.72;5031197;28;20448;-57
2022/01/27 06:15:34;;;;;;;6.17;5.60;;;2.70;91.80;;;2.35;63.16;95667.50;5035040;28;20468;-57
2022/01/27 06:18:01;;;;;;;6.07;5.23;;;2.60;91.70;;;2.35;64.49;95675.28;5033777;28;20448;-57
2022/01/27 06:20:30;;;;;;;6.30;5.70;;;2.60;92.10;;;2.35;64.48;95678.72;5034225;28;20486;-57
2022/01/27 06:22:58;;;;;;;5.40;4.93;;;2.60;91.90;;;2.34;64.55;95677.06;5036066;28;20452;-57
2022/01/27 06:25:25;;;;;;;4.53;3.97;;;2.60;92.10;;;2.35;64.26;95672.69;5034690;28;20515;-57
2022/01/27 06:27:53;;;;;;;7.63;5.47;;;2.60;92.30;;;2.36;63.48;95679.59;5036195;28;20509;-56
2022/01/27 06:30:20;;;;;;;5.37;4.97;;;2.60;92.10;;;2.35;63.45;95683.91;5039157;28;20519;-57
2022/01/27 06:32:49;;;;;;;5.40;4.90;;;2.60;92.00;;;2.34;63.93;95682.25;5035612;28;20456;-58
2022/01/27 06:35:16;;;;;;;6.27;5.57;;;2.60;92.20;;;2.34;64.31;95684.84;5038715;28;20796;-57
2022/01/27 06:37:45;;;;;;;5.53;4.90;;;2.60;92.10;;;2.36;64.34;95677.81;5039793;28;20976;-58
2022/01/27 06:40:14;;;;;;;5.97;5.20;;;2.60;92.00;;;2.35;63.90;95677.88;5042344;28;20456;-57
2022/01/27 06:42:41;;;;;;;5.57;5.07;;;2.60;91.80;;;2.31;63.43;95684.97;5040976;28;20489;-58
2022/01/27 06:45:10;;;;;;;6.60;5.63;;;2.60;91.70;;;2.30;63.62;95685.88;5039446;28;20451;-57
2022/01/27 06:47:37;;;;;;;6.00;5.13;;;2.60;91.70;;;2.27;63.91;95688.63;5038804;28;21000;-58
2022/01/27 06:50:07;;;;;;;5.33;4.93;;;2.60;91.70;;;2.27;63.66;95686.03;5041803;28;20451;-57
2022/01/27 06:52:34;;;;;;;9.63;5.40;;;2.50;91.70;;;2.25;63.68;95680.06;5043216;28;20517;-59
2022/01/27 08:16:06;;;;;;;13.13;8.03;;;3.10;91.90;;;2.90;63.73;95710.81;5035211;28;20471;-58
2022/01/27 08:18:34;;;;;;;9.33;7.50;;;3.20;92.00;;;2.94;63.25;95712.38;5039308;28;20479;-57
2022/01/27 08:21:01;;;;;;;13.90;9.20;;;3.20;92.00;;;2.95;62.68;95709.72;5039674;28;21065;-57
2022/01/27 08:23:28;;;;;;;14.90;8.00;;;3.20;91.60;;;2.96;63.05;95711.41;5041577;28;20444;-57
2022/01/27 08:26:03;;;;;;;10.13;7.43;;;3.20;92.00;;;2.99;63.46;95710.41;5039517;28;20507;-57
2022/01/27 08:28:36;;;;;;;11.43;7.80;;;3.20;92.00;;;3.02;63.20;95710.25;5040222;28;20858;-57
2022/01/27 08:31:04;;;;;;;9.23;7.40;;;3.30;92.00;;;3.04;63.48;95718.84;5037191;28;20487;-57
2022/01/27 08:33:33;;;;;;;10.10;8.40;;;3.30;91.80;;;3.08;63.89;95715.16;5037105;28;20476;-57
2022/01/27 08:36:01;;;;;;;10.63;7.30;;;3.30;92.00;;;3.13;63.33;95721.00;5039460;28;20468;-58
2022/01/27 08:38:28;;;;;;;10.60;8.47;;;3.40;92.00;;;3.16;63.38;95719.97;5041799;28;20527;-57
2022/01/27 08:40:55;;;;;;;8.40;7.50;;;3.40;91.90;;;3.19;63.79;95723.31;5035950;28;20529;-57
2022/01/27 08:43:23;;;;;;;10.47;7.77;;;3.50;91.90;;;3.22;63.32;95717.94;5040322;28;20848;-57
2022/01/27 08:45:50;;;;;;;10.90;8.60;;;3.50;91.70;;;3.26;63.42;95728.22;5035704;28;20574;-58
2022/01/27 08:48:20;;;;;;;12.07;8.53;;;3.50;91.80;;;3.27;63.63;95728.13;5040803;28;20927;-59
2022/01/27 08:50:58;;;;;;;13.50;8.67;;;3.50;91.80;;;3.28;63.77;95727.19;5038482;28;20475;-57
2022/01/27 08:53:26;;;;;;;9.47;7.77;;;3.60;91.90;;;3.31;62.43;95719.25;5041269;28;20455;-57
2022/01/27 08:55:53;;;;;;;10.03;8.50;;;3.60;91.70;;;3.29;62.58;95726.28;5039145;28;21080;-57
2022/01/27 08:58:23;;;;;;;9.03;7.13;;;3.60;91.40;;;3.28;62.23;95728.97;5040722;28;20456;-57
2022/01/27 09:00:51;;;;;;;10.63;8.30;;;3.50;91.20;;;3.22;62.67;95728.34;5040111;28;20551;-57
2022/01/27 09:03:20;;;;;;;14.87;9.40;;;3.50;91.20;;;3.22;63.17;95735.28;5039413;28;20449;-58
2022/01/27 09:05:48;;;;;;;10.20;8.27;;;3.50;91.40;;;3.25;62.98;95729.94;5040105;28;20483;-57
2022/01/27 09:08:16;;;;;;;12.73;9.63;;;3.50;91.50;;;3.29;63.06;95731.50;5037934;28;20969;-57
2022/01/27 09:10:45;;;;;;;19.50;10.90;;;3.50;92.20;;;3.34;63.17;95736.47;5035638;28;20471;-57
2022/01/27 09:13:14;;;;;;;9.80;7.70;;;3.60;91.60;;;3.39;62.98;95735.34;5037670;28;20449;-57
2022/01/27 09:15:43;;;;;;;12.80;8.50;;;3.60;91.40;;;3.48;63.00;95733.19;5037969;28;20468;-57
2022/01/27 09:18:10;;;;;;;12.73;8.73;;;3.70;91.50;;;3.54;62.46;95733.72;5038267;28;20549;-57
2022/01/27 09:20:37;;;;;;;9.83;7.80;;;3.80;91.40;;;3.61;62.56;95736.03;5040365;28;20467;-57
2022/01/27 09:23:12;;;;;;;14.27;10.17;;;3.80;91.10;;;3.67;61.95;95733.13;5040311;28;20562;-57
2022/01/27 09:25:43;;;;;;;14.27;9.73;;;3.90;91.60;;;3.70;62.26;95731.22;5038991;28;20553;-57
2022/01/27 09:28:10;;;;;;;12.40;9.33;;;4.00;91.00;;;3.73;61.86;95733.66;5043343;28;20475;-57
2022/01/27 09:30:38;;;;;;;13.30;9.80;;;4.00;90.90;;;3.79;62.74;95726.47;5037307;28;20480;-57
2022/01/27 09:33:05;;;;;;;14.43;9.40;;;4.00;91.00;;;3.82;61.71;95724.53;5035878;28;20452;-58
2022/01/27 09:35:33;;;;;;;12.00;9.37;;;4.00;90.70;;;3.84;61.67;95720.13;5035048;28;20526;-57
2022/01/27 09:38:00;;;;;;;12.67;8.50;;;4.10;90.60;;;3.84;61.45;95714.06;5040789;28;20505;-57
2022/01/27 09:40:29;;;;;;;12.53;9.40;;;4.10;90.40;;;3.85;61.53;95706.16;5037858;28;20484;-57
2022/01/27 09:42:58;;;;;;;10.83;8.63;;;4.10;90.40;;;3.86;61.61;95713.06;5037886;28;20940;-57
2022/01/27 09:45:26;;;;;;;14.10;9.10;;;4.10;90.20;;;3.91;61.35;95705.88;5038513;28;20495;-57
2022/01/27 09:47:56;;;;;;;18.27;10.87;;;4.10;90.20;;;3.92;60.96;95702.34;5039283;28;20585;-57
2022/01/27 09:50:35;;;;;;;16.20;10.60;;;4.20;90.00;;;3.93;61.32;95709.25;5038217;28;20534;-57
2022/01/27 09:53:03;;;;;;;23.80;9.73;;;4.20;90.30;;;3.93;60.56;95703.19;5039411;28;20440;-57
2022/01/27 09:55:32;;;;;;;18.23;11.43;;;4.20;89.50;;;3.91;60.78;95705.88;5035991;28;20473;-57
2022/01/27 09:58:01;;;;;;;17.23;10.30;;;4.10;89.50;;;3.92;60.99;95711.94;5042507;28;20463;-57
2022/01/27 10:00:28;;;;;;;14.67;10.17;;;4.20;90.00;;;3.94;60.82;95705.69;5038750;28;20472;-57
2022/01/27 10:03:07;;;;;;;15.10;9.50;;;4.20;89.50;;;3.91;60.83;95708.47;5038417;28;20451;-57
2022/01/27 10:05:35;;;;;;;10.77;8.70;;;4.20;89.20;;;3.87;60.55;95708.69;5039486;28;20485;-57
2022/01/27 10:08:04;;;;;;;11.20;8.80;;;4.10;89.00;;;3.87;60.84;95706.97;5042468;28;20491;-59
2022/01/27 10:10:38;;;;;;;12.43;9.30;;;4.10;89.00;;;3.88;59.99;95707.78;5043767;28;20475;-57
2022/01/27 10:13:08;;;;;;;13.17;9.83;;;4.10;89.00;;;3.91;60.79;95702.44;5038025;28;20436;-57
2022/01/27 10:15:38;;;;;;;11.97;8.73;;;4.10;89.10;;;3.92;60.55;95697.16;5037188;28;20472;-57
2022/01/27 10:18:12;;;;;;;11.20;7.77;;;4.20;88.50;;;3.95;60.27;95701.34;5042661;28;20448;-57
2022/01/27 10:20:40;;;;;;;10.40;9.00;;;4.20;89.00;;;4.01;60.14;95702.78;5041957;28;20639;-58
2022/01/27 10:23:13;;;;;;;13.53;8.53;;;4.20;88.30;;;4.08;59.80;95701.56;5044100;28;20464;-57
2022/01/27 10:25:49;;;;;;;9.27;7.90;;;4.30;87.80;;;4.10;59.16;95697.09;5041100;28;20468;-57
2022/01/27 10:28:28;;;;;;;11.80;8.83;;;4.30;87.60;;;4.16;59.69;95698.56;5040571;28;20454;-57
2022/01/27 10:31:07;;;;;;;13.07;9.23;;;4.40;87.70;;;4.19;59.32;95699.22;5041531;28;20464;-57
2022/01/27 10:33:45;;;;;;;14.37;9.73;;;4.40;87.30;;;4.23;58.81;95689.47;5042663;28;20458;-57
2022/01/27 10:36:32;;;;;;;12.60;9.10;;;4.50;86.60;;;4.22;58.71;95693.84;5045287;28;20475;-58
2022/01/27 10:39:00;;;;;;;19.03;11.90;;;4.50;86.00;;;4.20;58.92;95689.66;5042734;28;20447;-57
2022/01/27 10:41:33;;;;;;;15.60;10.33;;;4.40;86.10;;;4.22;58.66;95688.66;5036765;28;20480;-57
2022/01/27 10:44:12;;;;;;;15.27;9.50;;;4.40;86.50;;;4.27;58.96;95676.22;5039707;28;20621;-56
2022/01/27 10:46:46;;;;;;;11.10;8.00;;;4.50;86.40;;;4.32;58.59;95675.97;5040758;28;20492;-57
2022/01/27 10:49:23;;;;;;;12.00;7.80;;;4.50;85.70;;;4.36;57.92;95672.28;5043718;28;20440;-57
2022/01/27 10:51:53;;;;;;;11.37;7.90;;;4.60;85.20;;;4.44;58.10;95682.31;5041653;28;20533;-57
2022/01/27 10:54:34;;;;;;;7.43;6.47;;;4.60;85.10;;;4.53;58.10;95676.59;5042654;28;20883;-57
2022/01/27 10:57:05;;;;;;;9.40;7.10;;;4.70;84.80;;;4.65;57.64;95669.88;5039810;28;20496;-56
2022/01/27 10:59:33;;;;;;;9.60;6.80;;;4.80;84.00;;;4.80;57.44;95668.19;5038967;28;20448;-57
2022/01/27 11:02:04;;;;;;;8.10;6.57;;;4.90;84.20;;;4.92;56.97;95667.50;5044960;28;20590;-57
2022/01/27 11:04:35;;;;;;;7.33;6.53;;;5.10;83.40;;;5.06;56.81;95665.91;5035609;28;20445;-58
2022/01/27 11:07:03;;;;;;;6.90;6.13;;;5.20;82.90;;;5.21;56.75;95671.09;5039778;28;21080;-57
2022/01/27 11:09:35;;;;;;;5.73;5.23;;;5.30;82.50;;;5.37;56.20;95670.22;5037751;28;20456;-57
2022/01/27 11:12:08;;;;;;;5.97;5.47;;;5.50;81.90;;;5.54;56.03;95659.63;5039196;28;20464;-57
2022/01/27 11:14:35;;;;;;;6.70;5.13;;;5.70;81.30;;;5.88;55.38;95646.38;5041176;28;20448;-57
2022/01/27 11:17:04;;;;;;;10.97;7.07;;;6.00;80.60;;;6.31;54.61;95649.00;5041034;28;20598;-57
2022/01/27 11:19:58;;;;;;;7.23;5.20;;;6.30;80.00;;;6.64;53.86;95645.22;5040559;28;20452;-58
2022/01/27 11:25:49;;;;;;;5.60;5.00;;;7.10;77.20;;;7.60;52.06;95644.31;5041878;28;20487;-57
2022/01/27 11:28:06;;;;;;;5.00;4.50;;;7.60;75.40;;;8.21;50.67;95637.50;5036402;28;20486;-57
2022/01/27 11:30:40;;;;;;;5.13;4.70;;;8.10;73.10;;;8.57;50.08;95641.16;5035757;28;20483;-58
2022/01/27 11:33:09;;;;;;;6.20;5.60;;;8.50;71.60;;;8.88;49.67;95633.72;5038929;28;20980;-58
2022/01/27 11:35:39;;;;;;;9.00;6.60;;;8.90;70.50;;;9.07;48.05;95627.97;5038277;28;20993;-59
2022/01/27 11:38:08;;;;;;;8.17;6.70;;;9.10;67.20;;;9.11;48.17;95628.59;5039638;28;20452;-57
2022/01/27 11:40:37;;;;;;;5.77;5.27;;;9.20;66.30;;;9.05;48.20;95629.03;5041964;28;20584;-57
2022/01/27 11:43:11;;;;;;;8.97;6.77;;;9.20;66.80;;;8.93;47.70;95631.59;5041687;28;20539;-57
2022/01/27 11:45:41;;;;;;;6.80;6.10;;;9.20;65.00;;;8.86;47.12;95630.38;5040489;28;20460;-58
2022/01/27 11:48:10;;;;;;;6.27;5.27;;;9.10;64.50;;;8.86;48.37;95638.25;5037624;28;20496;-58
2022/01/27 11:50:54;;;;;;;5.10;4.60;;;9.10;65.90;;;8.91;47.75;95630.88;5035843;28;20472;-58
2022/01/27 11:53:34;;;;;;;5.70;4.83;;;9.00;64.40;;;8.96;47.47;95618.25;5041140;28;20451;-58
2022/01/27 11:56:01;;;;;;;4.60;4.23;;;9.10;63.60;;;9.02;47.28;95618.78;5036773;28;20475;-58
2022/01/27 11:58:31;;;;;;;4.40;4.07;;;9.20;63.10;;;9.04;47.14;95622.13;5039874;28;20456;-57
2022/01/27 12:01:13;;;;;;;5.73;5.20;;;9.20;63.10;;;9.14;46.57;95623.13;5042337;28;20476;-57
2022/01/27 12:03:41;;;;;;;6.30;5.70;;;9.30;62.30;;;9.24;47.12;95613.59;5039473;28;20451;-57
2022/01/27 12:06:21;;;;;;;5.97;5.47;;;9.40;63.30;;;9.37;46.12;95623.19;5041180;28;20886;-57
2022/01/27 12:08:48;;;;;;;5.50;4.47;;;9.50;61.80;;;9.42;47.24;95618.44;5040121;28;20458;-57
2022/01/27 12:11:48;;;;;;;4.97;4.53;;;9.50;63.40;;;9.49;46.62;95617.88;5040521;28;20500;-59
2022/01/27 12:14:21;;;;;;;5.00;4.60;;;9.60;62.00;;;9.59;46.71;95620.66;5040091;28;20456;-58
2022/01/27 12:17:21;;;;;;;6.90;5.93;;;9.70;62.60;;;9.67;45.56;95613.03;5039554;28;20557;-58
2022/01/27 12:19:48;;;;;;;6.20;5.60;;;9.80;60.60;;;9.69;45.58;95613.75;5034971;28;20465;-57
2022/01/27 12:22:16;;;;;;;4.57;4.10;;;9.80;59.90;;;9.66;46.05;95605.28;5036207;28;20488;-57
2022/01/27 12:24:52;;;;;;;4.30;3.97;;;9.80;59.90;;;9.60;45.92;95603.94;5041369;28;20451;-58
2022/01/27 12:27:19;;;;;;;4.63;4.27;;;9.70;59.90;;;9.45;45.21;95603.31;5038760;28;20500;-58
2022/01/27 12:29:50;;;;;;;9.43;4.53;;;9.60;58.80;;;9.40;45.79;95599.34;5042768;28;20456;-57
2022/01/27 12:32:21;;;;;;;4.93;4.50;;;9.60;59.70;;;9.39;44.62;95595.03;5037232;28;20872;-58